Time;durP1;ratioP1;P1;durP2;ratioP2;P2;SDS_P1;SDS_P2;PMS_P1;PMS_P2;Temp;Humidity;BMP_temperature;BMP_pressure;BME280_temperature;BME280_humidity;BME280_pressure;Samples;Min_cycle;Max_cycle;Signal;HPM_P1;HPM_P2
2023/06/16 00:01:35;;;;;;;9.18;4.03;;;18.90;90.70;;;;;;5080318;28;20043;-61
2023/06/16 00:04:03;;;;;;;4.13;3.42;;;18.90;90.80;;;;;;5081511;28;20048;-62
2023/06/16 00:06:30;;;;;;;6.35;3.92;;;18.80;90.90;;;;;;5091273;28;20058;-62
2023/06/16 00:08:58;;;;;;;4.65;3.85;;;18.80;91.00;;;;;;5092663;28;20077;-62
2023/06/16 00:11:27;;;;;;;5.10;4.00;;;18.70;90.90;;;;;;5092510;28;20055;-60
2023/06/16 00:13:55;;;;;;;5.55;3.88;;;18.70;91.10;;;;;;5090907;28;20052;-62
2023/06/16 00:16:23;;;;;;;6.78;4.25;;;18.70;91.20;;;;;;5091932;28;20048;-62
2023/06/16 00:18:52;;;;;;;5.65;4.05;;;18.70;91.40;;;;;;5092398;28;20423;-63
2023/06/16 00:21:25;;;;;;;7.70;4.13;;;18.60;91.80;;;;;;5092231;28;20048;-62
2023/06/16 00:23:52;;;;;;;6.32;3.90;;;18.60;92.00;;;;;;5091853;28;20051;-60
2023/06/16 00:26:18;;;;;;;7.40;3.97;;;18.50;92.20;;;;;;5091772;28;20044;-62
2023/06/16 00:28:44;;;;;;;5.55;3.47;;;18.50;92.20;;;;;;5092134;28;20074;-60
2023/06/16 00:31:11;;;;;;;6.97;4.05;;;18.50;92.40;;;;;;5091804;28;20418;-60
2023/06/16 00:33:37;;;;;;;7.07;3.85;;;18.40;92.60;;;;;;5091940;28;20066;-60
2023/06/16 00:36:03;;;;;;;5.82;3.90;;;18.40;92.70;;;;;;5091603;28;20047;-62
2023/06/16 00:38:30;;;;;;;5.35;3.92;;;18.40;92.70;;;;;;5091130;28;20503;-61
2023/06/16 00:40:56;;;;;;;5.65;4.53;;;18.30;93.20;;;;;;5091991;28;20048;-62
2023/06/16 00:43:22;;;;;;;6.50;3.92;;;18.30;93.20;;;;;;5091515;28;20047;-60
2023/06/16 00:45:49;;;;;;;7.03;4.35;;;18.20;93.30;;;;;;5091707;28;20372;-62
2023/06/16 00:48:16;;;;;;;6.93;4.30;;;18.20;93.70;;;;;;5092002;28;20048;-60
2023/06/16 00:50:43;;;;;;;7.43;4.45;;;18.20;93.60;;;;;;5091852;28;20109;-61
2023/06/16 00:53:10;;;;;;;7.97;4.60;;;18.10;93.80;;;;;;5092100;28;20054;-62
2023/06/16 00:55:37;;;;;;;5.15;4.65;;;18.10;94.10;;;;;;5091931;28;20048;-61
2023/06/16 00:58:04;;;;;;;8.68;4.57;;;18.00;94.20;;;;;;5091884;28;20422;-59
2023/06/16 01:00:36;;;;;;;4.93;4.28;;;18.00;94.40;;;;;;5091915;28;20128;-60
2023/06/16 01:03:04;;;;;;;7.28;4.43;;;18.00;94.30;;;;;;5091488;28;20067;-61
2023/06/16 01:05:32;;;;;;;5.35;3.88;;;18.00;94.30;;;;;;5091546;28;20056;-62
2023/06/16 01:08:18;;;;;;;7.22;4.40;;;18.00;94.30;;;;;;5091851;28;20059;-61
2023/06/16 01:11:04;;;;;;;5.85;4.00;;;17.90;95.00;;;;;;5091727;28;20052;-62
2023/06/16 01:14:01;;;;;;;6.10;4.80;;;17.90;94.90;;;;;;5091382;28;20414;-61
2023/06/16 01:16:31;;;;;;;6.50;4.78;;;17.90;95.10;;;;;;5091246;28;20469;-61
2023/06/16 01:19:02;;;;;;;6.38;5.18;;;17.80;95.30;;;;;;5094439;28;20048;-60
2023/06/16 01:21:38;;;;;;;7.00;5.30;;;17.70;95.40;;;;;;5095107;28;20464;-59
2023/06/16 01:24:08;;;;;;;7.35;4.88;;;17.70;95.60;;;;;;5095040;28;20051;-61
2023/06/16 01:26:44;;;;;;;7.95;5.32;;;17.60;95.70;;;;;;5094991;28;20459;-61
2023/06/16 01:29:11;;;;;;;8.55;5.75;;;17.60;96.40;;;;;;5095658;28;20353;-59
2023/06/16 01:31:41;;;;;;;9.38;5.97;;;17.50;97.00;;;;;;5095165;28;20060;-59
2023/06/16 01:34:11;;;;;;;11.02;6.63;;;17.30;97.60;;;;;;5096868;28;20051;-61
2023/06/16 01:36:40;;;;;;;9.63;6.85;;;17.20;98.00;;;;;;5096117;28;20121;-60
2023/06/16 01:39:08;;;;;;;8.48;6.28;;;17.00;98.70;;;;;;5096013;28;20044;-59
2023/06/16 01:41:36;;;;;;;10.25;7.05;;;16.90;98.70;;;;;;5095151;28;20105;-61
2023/06/16 01:44:05;;;;;;;8.07;6.40;;;16.80;98.90;;;;;;5094796;28;20052;-59
2023/06/16 01:46:32;;;;;;;8.48;6.70;;;16.80;98.80;;;;;;5094752;28;20079;-60
2023/06/16 01:49:00;;;;;;;10.73;7.53;;;16.80;99.10;;;;;;5095119;28;20048;-58
2023/06/16 01:51:26;;;;;;;10.25;7.15;;;16.70;99.40;;;;;;5094869;28;20044;-62
2023/06/16 01:53:53;;;;;;;8.63;7.10;;;16.70;99.30;;;;;;5094648;28;20048;-62
2023/06/16 01:56:20;;;;;;;8.73;7.40;;;16.70;99.40;;;;;;5094781;28;20052;-62
2023/06/16 01:58:46;;;;;;;8.88;6.68;;;16.60;99.60;;;;;;5094935;28;20044;-59
2023/06/16 02:01:29;;;;;;;9.27;7.05;;;16.60;99.40;;;;;;5094748;28;20052;-62
2023/06/16 02:04:16;;;;;;;10.07;7.10;;;16.60;99.90;;;;;;5094393;28;20075;-60
2023/06/16 02:07:04;;;;;;;8.18;7.38;;;16.50;99.90;;;;;;5094496;28;20097;-62
2023/06/16 02:09:32;;;;;;;8.80;7.18;;;16.30;99.90;;;;;;5094671;28;20561;-59
2023/06/16 02:11:59;;;;;;;9.57;7.28;;;16.30;99.90;;;;;;5094660;28;20051;-59
2023/06/16 02:14:28;;;;;;;9.27;7.18;;;16.20;99.90;;;;;;5093826;28;20077;-61
2023/06/16 02:16:56;;;;;;;10.95;7.88;;;16.20;99.90;;;;;;5094469;28;20367;-60
2023/06/16 02:19:22;;;;;;;8.27;7.15;;;16.20;99.90;;;;;;5093479;28;20131;-60
2023/06/16 02:21:48;;;;;;;10.60;7.40;;;16.10;99.90;;;;;;5094278;28;20393;-61
2023/06/16 02:24:15;;;;;;;9.73;7.13;;;16.00;99.90;;;;;;5093800;28;20044;-61
2023/06/16 02:26:41;;;;;;;9.63;7.05;;;16.00;99.90;;;;;;5092877;28;20052;-60
2023/06/16 02:29:07;;;;;;;8.90;6.85;;;16.00;99.90;;;;;;5094143;28;20080;-57
2023/06/16 02:31:34;;;;;;;10.23;7.38;;;16.00;99.90;;;;;;5093915;28;20044;-60
2023/06/16 02:34:00;;;;;;;10.02;7.30;;;16.00;99.90;;;;;;5093889;28;20040;-61
2023/06/16 02:36:27;;;;;;;8.63;6.55;;;16.10;99.90;;;;;;5093701;28;20040;-62
2023/06/16 02:38:53;;;;;;;9.95;7.88;;;16.10;99.90;;;;;;5094061;28;20056;-62
2023/06/16 02:41:19;;;;;;;12.23;8.00;;;16.10;99.90;;;;;;5093915;28;20089;-61
2023/06/16 02:43:45;;;;;;;10.82;8.07;;;16.20;99.90;;;;;;5093505;28;20044;-60
2023/06/16 02:46:12;;;;;;;9.55;7.55;;;16.20;99.90;;;;;;5093721;28;20048;-62
2023/06/16 02:48:38;;;;;;;9.70;7.50;;;16.20;99.90;;;;;;5094026;28;20462;-61
2023/06/16 02:51:04;;;;;;;9.73;8.43;;;16.20;99.90;;;;;;5093729;28;20040;-59
2023/06/16 02:53:30;;;;;;;10.52;8.00;;;16.20;99.90;;;;;;5093424;28;20060;-61
2023/06/16 02:55:58;;;;;;;10.40;8.35;;;16.20;99.90;;;;;;5093510;28;20056;-60
2023/06/16 02:58:24;;;;;;;11.52;8.55;;;16.20;99.90;;;;;;5093704;28;20052;-60
2023/06/16 03:00:50;;;;;;;12.82;8.52;;;16.30;99.90;;;;;;5093712;28;20078;-60
2023/06/16 03:03:17;;;;;;;9.95;8.38;;;16.20;99.90;;;;;;5093295;28;20097;-59
2023/06/16 03:05:43;;;;;;;10.00;8.15;;;16.20;99.90;;;;;;5093070;28;20048;-61
2023/06/16 03:08:10;;;;;;;11.68;9.18;;;16.30;99.90;;;;;;5093748;28;20105;-61
2023/06/16 03:10:36;;;;;;;10.18;8.23;;;16.20;99.90;;;;;;5093872;28;20106;-61
2023/06/16 03:13:02;;;;;;;12.55;8.70;;;16.20;99.90;;;;;;5093024;28;20063;-61
2023/06/16 03:15:30;;;;;;;11.48;9.13;;;16.10;99.90;;;;;;5091990;28;20044;-61
2023/06/16 03:17:56;;;;;;;12.52;9.18;;;16.10;99.90;;;;;;5093415;28;20451;-61
2023/06/16 03:20:23;;;;;;;10.57;8.43;;;16.10;99.90;;;;;;5092956;28;20426;-61
2023/06/16 03:22:49;;;;;;;15.80;9.43;;;16.10;99.90;;;;;;5092890;28;20065;-60
2023/06/16 03:25:15;;;;;;;11.25;8.52;;;16.20;99.90;;;;;;5092858;28;20465;-61
2023/06/16 03:27:42;;;;;;;12.77;8.40;;;16.30;99.90;;;;;;5093212;28;20074;-62
2023/06/16 03:30:08;;;;;;;14.23;8.70;;;16.30;99.90;;;;;;5092926;28;20067;-61
2023/06/16 03:32:37;;;;;;;9.88;8.07;;;16.30;99.90;;;;;;5092662;28;20456;-60
2023/06/16 03:35:04;;;;;;;9.73;8.30;;;16.30;99.90;;;;;;5091906;28;20452;-62
2023/06/16 03:37:31;;;;;;;11.02;9.20;;;16.30;99.90;;;;;;5092907;28;20067;-61
2023/06/16 03:40:05;;;;;;;11.27;8.30;;;16.30;99.90;;;;;;5092368;28;20052;-61
2023/06/16 03:42:32;;;;;;;12.65;9.20;;;16.30;99.90;;;;;;5092816;28;20287;-60
2023/06/16 03:44:59;;;;;;;10.82;8.88;;;16.30;99.90;;;;;;5092118;28;20098;-62
2023/06/16 03:47:26;;;;;;;9.60;8.52;;;16.40;99.90;;;;;;5092719;28;20040;-59
2023/06/16 03:49:53;;;;;;;10.52;9.43;;;16.40;99.90;;;;;;5092560;28;20048;-62
2023/06/16 03:52:20;;;;;;;12.77;9.45;;;16.30;99.90;;;;;;5092726;28;20044;-62
2023/06/16 03:54:48;;;;;;;12.35;9.20;;;16.30;99.90;;;;;;5092046;28;20047;-59
2023/06/16 03:57:14;;;;;;;10.98;9.43;;;16.40;99.90;;;;;;5092723;28;20060;-62
2023/06/16 03:59:40;;;;;;;10.13;8.70;;;16.40;99.90;;;;;;5092826;28;20121;-61
2023/06/16 04:02:07;;;;;;;13.45;10.48;;;16.40;99.90;;;;;;5092701;28;20066;-58
2023/06/16 04:04:35;;;;;;;12.93;9.75;;;16.40;99.90;;;;;;5091697;28;20361;-61
2023/06/16 04:07:03;;;;;;;10.48;9.05;;;16.40;99.90;;;;;;5092944;28;20420;-59
2023/06/16 04:09:30;;;;;;;13.45;9.20;;;16.50;99.90;;;;;;5092442;28;20059;-61
2023/06/16 04:11:57;;;;;;;12.75;9.45;;;16.50;99.90;;;;;;5092567;28;20052;-62
2023/06/16 04:14:23;;;;;;;11.30;8.23;;;16.60;99.90;;;;;;5092710;28;20051;-60
2023/06/16 04:16:49;;;;;;;11.77;9.05;;;16.60;99.90;;;;;;5092383;28;20067;-61
2023/06/16 04:19:19;;;;;;;11.15;9.20;;;16.60;99.90;;;;;;5092227;28;20399;-62
2023/06/16 04:21:46;;;;;;;11.32;9.07;;;16.70;99.90;;;;;;5092494;28;20048;-61
2023/06/16 04:24:12;;;;;;;10.38;8.85;;;16.70;99.90;;;;;;5092209;28;20070;-62
2023/06/16 04:26:41;;;;;;;9.50;8.52;;;16.80;99.90;;;;;;5092443;28;20048;-61
2023/06/16 04:29:08;;;;;;;10.55;8.60;;;16.80;99.90;;;;;;5092316;28;20444;-60
2023/06/16 04:31:37;;;;;;;10.80;9.13;;;16.90;99.90;;;;;;5092437;28;20048;-58
2023/06/16 04:34:03;;;;;;;10.43;8.68;;;17.00;99.90;;;;;;5091607;28;20395;-62
2023/06/16 04:36:31;;;;;;;11.15;8.65;;;17.10;99.90;;;;;;5091436;28;20460;-62
2023/06/16 04:38:58;;;;;;;9.75;8.45;;;17.10;99.90;;;;;;5092330;28;20044;-60
2023/06/16 04:41:24;;;;;;;9.52;8.52;;;17.20;99.90;;;;;;5092374;28;20055;-63
2023/06/16 04:43:51;;;;;;;12.18;9.60;;;17.30;99.90;;;;;;5091777;28;20456;-63
2023/06/16 04:46:18;;;;;;;9.80;8.80;;;17.30;99.90;;;;;;5091758;28;20052;-61
2023/06/16 04:48:44;;;;;;;10.68;9.40;;;17.30;99.90;;;;;;5091003;28;20044;-62
2023/06/16 04:51:10;;;;;;;10.57;8.43;;;17.20;99.90;;;;;;5091875;28;20048;-62
2023/06/16 04:53:37;;;;;;;10.32;9.27;;;17.30;99.90;;;;;;5095762;28;20048;-60
2023/06/16 04:56:03;;;;;;;12.90;10.68;;;17.60;99.90;;;;;;5095618;28;20052;-61
2023/06/16 04:58:30;;;;;;;10.65;9.55;;;18.00;99.90;;;;;;5095929;28;20052;-62
2023/06/16 05:00:56;;;;;;;10.38;9.25;;;18.40;99.90;;;;;;5095893;28;20101;-61
2023/06/16 05:03:22;;;;;;;12.85;9.75;;;19.20;99.90;;;;;;5095478;28;20048;-61
2023/06/16 05:05:48;;;;;;;10.52;9.48;;;20.00;99.90;;;;;;5092610;28;20103;-63
2023/06/16 05:08:15;;;;;;;13.20;10.70;;;20.80;99.90;;;;;;5084652;28;20051;-62
2023/06/16 05:10:41;;;;;;;12.90;9.65;;;21.40;99.90;;;;;;5086777;28;20078;-63
2023/06/16 05:13:08;;;;;;;11.82;9.25;;;22.10;99.60;;;;;;5081457;28;20059;-61
2023/06/16 05:15:34;;;;;;;11.65;10.48;;;22.50;99.10;;;;;;5086192;28;20321;-60
2023/06/16 05:18:00;;;;;;;11.25;9.85;;;23.10;98.30;;;;;;5082949;28;20066;-62
2023/06/16 05:20:27;;;;;;;12.45;10.48;;;23.30;97.80;;;;;;5083749;28;20048;-62
2023/06/16 05:22:53;;;;;;;12.15;10.20;;;23.30;97.50;;;;;;5094810;28;20062;-63
2023/06/16 05:25:19;;;;;;;12.93;11.60;;;23.50;97.30;;;;;;5095380;28;20101;-63
2023/06/16 05:27:46;;;;;;;13.38;11.35;;;23.60;97.20;;;;;;5095438;28;20113;-62
2023/06/16 05:30:12;;;;;;;14.75;11.50;;;23.40;97.10;;;;;;5095174;28;20044;-63
2023/06/16 05:32:39;;;;;;;12.40;11.07;;;23.50;97.10;;;;;;5095188;28;20044;-61
2023/06/16 05:35:06;;;;;;;12.75;11.35;;;23.60;97.20;;;;;;5094851;28;20036;-62
2023/06/16 05:37:32;;;;;;;19.15;11.70;;;23.80;97.00;;;;;;5095170;28;20058;-63
2023/06/16 05:39:59;;;;;;;12.77;11.02;;;23.90;96.70;;;;;;5095425;28;20048;-61
2023/06/16 05:42:26;;;;;;;12.40;11.20;;;23.90;96.60;;;;;;5095261;28;20070;-63
2023/06/16 05:44:52;;;;;;;11.40;10.30;;;24.30;96.40;;;;;;5094008;28;20407;-62
2023/06/16 05:47:19;;;;;;;12.18;10.63;;;24.70;95.90;;;;;;5094448;28;20059;-64
2023/06/16 05:49:46;;;;;;;12.85;11.45;;;25.40;95.30;;;;;;5074519;28;20044;-62
2023/06/16 05:52:12;;;;;;;12.85;11.45;;;25.40;95.20;;;;;;5086564;28;20476;-62
2023/06/16 05:54:38;;;;;;;14.15;11.05;;;25.70;94.40;;;;;;5094191;28;20048;-62
2023/06/16 05:57:06;;;;;;;13.02;11.57;;;25.20;94.10;;;;;;5095054;28;20076;-63
2023/06/16 05:59:34;;;;;;;14.00;12.60;;;25.60;94.50;;;;;;5094865;28;20060;-63
2023/06/16 06:02:00;;;;;;;12.40;10.80;;;25.30;94.20;;;;;;5080984;28;20052;-64
2023/06/16 06:04:29;;;;;;;11.60;10.50;;;25.90;94.00;;;;;;5090995;28;20063;-63
2023/06/16 06:06:55;;;;;;;12.32;11.02;;;26.00;93.60;;;;;;5093387;28;20116;-64
2023/06/16 06:09:22;;;;;;;13.35;11.23;;;26.10;93.10;;;;;;5074151;28;20443;-62
2023/06/16 06:11:49;;;;;;;13.35;11.63;;;26.00;93.20;;;;;;5073808;28;20056;-63
2023/06/16 06:14:15;;;;;;;13.07;11.40;;;26.30;93.10;;;;;;5074136;28;20041;-64
2023/06/16 06:16:41;;;;;;;14.40;11.77;;;26.30;93.00;;;;;;5092784;28;20109;-63
2023/06/16 06:19:08;;;;;;;13.18;11.73;;;26.80;92.70;;;;;;5092922;28;20075;-64
2023/06/16 06:21:35;;;;;;;12.88;11.57;;;27.30;92.50;;;;;;5081596;28;20480;-63
2023/06/16 06:24:02;;;;;;;14.57;11.70;;;27.50;92.10;;;;;;5074036;28;20659;-64
2023/06/16 06:26:28;;;;;;;14.43;12.75;;;27.50;91.60;;;;;;5088939;28;20044;-64
2023/06/16 06:28:55;;;;;;;13.38;11.40;;;26.90;90.80;;;;;;5092361;28;20048;-63
2023/06/16 06:31:21;;;;;;;10.70;9.60;;;26.90;91.60;;;;;;5091634;28;20548;-64
2023/06/16 06:33:47;;;;;;;12.77;11.48;;;27.00;91.50;;;;;;5092664;28;20048;-65
2023/06/16 06:36:27;;;;;;;14.02;10.52;;;27.40;91.30;;;;;;5090963;28;20054;-65
2023/06/16 06:38:56;;;;;;;10.52;9.43;;;27.90;89.20;;;;;;5092341;28;20188;-66
2023/06/16 06:41:24;;;;;;;11.18;9.23;;;28.00;89.90;;;;;;5085508;28;20127;-65
2023/06/16 06:43:50;;;;;;;11.30;9.65;;;27.40;88.40;;;;;;5092950;28;20066;-64
2023/06/16 06:46:19;;;;;;;9.13;8.32;;;27.40;89.10;;;;;;5093693;28;20055;-64
2023/06/16 06:48:46;;;;;;;10.82;7.72;;;27.60;88.30;;;;;;5093000;28;20481;-64
2023/06/16 06:51:13;;;;;;;9.98;8.07;;;28.50;87.30;;;;;;5091986;28;20052;-62
2023/06/16 06:53:40;;;;;;;8.50;7.63;;;28.70;86.30;;;;;;5094554;28;20055;-64
2023/06/16 06:56:06;;;;;;;9.18;8.27;;;28.80;86.10;;;;;;5093876;28;20044;-63
2023/06/16 06:58:33;;;;;;;17.83;9.45;;;29.10;85.80;;;;;;5094216;28;20113;-62
2023/06/16 07:00:59;;;;;;;10.68;9.60;;;28.80;85.70;;;;;;5093736;28;20058;-65
2023/06/16 07:03:26;;;;;;;11.98;9.57;;;27.90;86.30;;;;;;5094194;28;20105;-65
2023/06/16 07:05:53;;;;;;;14.98;10.77;;;26.90;87.50;;;;;;5093619;28;20063;-61
2023/06/16 07:08:20;;;;;;;11.52;9.88;;;26.20;89.40;;;;;;5092911;28;20101;-65
2023/06/16 07:10:46;;;;;;;11.02;9.57;;;25.80;90.00;;;;;;5094128;28;20047;-64
2023/06/16 07:13:12;;;;;;;10.93;9.25;;;25.60;90.20;;;;;;5093330;28;20051;-63
2023/06/16 07:15:38;;;;;;;9.15;8.07;;;25.50;90.00;;;;;;5093650;28;20055;-62
2023/06/16 07:18:05;;;;;;;12.70;9.35;;;25.10;90.30;;;;;;5093607;28;20040;-64
2023/06/16 07:20:31;;;;;;;10.55;9.45;;;25.00;90.70;;;;;;5093692;28;20082;-64
2023/06/16 07:22:58;;;;;;;10.35;8.82;;;25.10;90.30;;;;;;5093150;28;20113;-64
2023/06/16 07:25:24;;;;;;;10.63;8.15;;;25.00;89.70;;;;;;5092390;28;20113;-62
2023/06/16 07:27:50;;;;;;;8.52;7.60;;;24.70;89.40;;;;;;5093477;28;20052;-64
2023/06/16 07:30:16;;;;;;;7.32;6.63;;;24.30;88.90;;;;;;5093207;28;20044;-63
2023/06/16 07:32:43;;;;;;;8.73;7.72;;;24.50;88.80;;;;;;5093168;28;20044;-63
2023/06/16 07:35:09;;;;;;;8.52;7.63;;;24.50;88.00;;;;;;5093034;28;20044;-63
2023/06/16 07:37:35;;;;;;;7.65;6.85;;;24.40;88.80;;;;;;5093476;28;20478;-62
2023/06/16 07:40:06;;;;;;;7.60;6.75;;;24.30;89.40;;;;;;5092993;28;20403;-62
2023/06/16 07:42:32;;;;;;;7.30;6.50;;;24.30;88.90;;;;;;5093157;28;20052;-61
2023/06/16 07:44:59;;;;;;;8.35;7.00;;;24.50;89.10;;;;;;5092823;28;20059;-63
2023/06/16 07:47:25;;;;;;;9.85;6.97;;;24.50;88.70;;;;;;5093235;28;20058;-63
2023/06/16 07:49:51;;;;;;;7.30;6.35;;;24.40;88.10;;;;;;5093037;28;20101;-62
2023/06/16 07:52:18;;;;;;;9.10;6.00;;;24.40;88.00;;;;;;5092235;28;20388;-63
2023/06/16 07:54:45;;;;;;;7.85;5.85;;;24.40;88.00;;;;;;5092995;28;20048;-63
2023/06/16 07:57:11;;;;;;;7.18;5.53;;;24.50;88.10;;;;;;5092806;28;20056;-64
2023/06/16 07:59:38;;;;;;;9.27;5.57;;;24.60;87.30;;;;;;5093300;28;20306;-62
2023/06/16 08:02:04;;;;;;;7.20;6.50;;;24.60;88.10;;;;;;5092530;28;20117;-63
2023/06/16 08:04:30;;;;;;;7.85;5.78;;;24.40;89.30;;;;;;5092551;28;20059;-63
2023/06/16 08:06:57;;;;;;;6.25;5.65;;;24.40;90.00;;;;;;5092627;28;20048;-64
2023/06/16 08:09:23;;;;;;;8.32;6.10;;;24.10;89.80;;;;;;5077885;28;20052;-62
2023/06/16 08:11:50;;;;;;;6.97;5.40;;;24.40;89.90;;;;;;5072012;28;20044;-63
2023/06/16 08:14:16;;;;;;;7.97;6.10;;;24.40;89.70;;;;;;5072362;28;20048;-64
2023/06/16 08:16:43;;;;;;;8.52;6.05;;;24.60;90.00;;;;;;5090541;28;20052;-63
2023/06/16 08:19:09;;;;;;;14.57;7.80;;;24.40;90.10;;;;;;5092463;28;20064;-63
2023/06/16 08:21:37;;;;;;;7.05;5.82;;;24.80;89.60;;;;;;5092170;28;20475;-64
2023/06/16 08:24:05;;;;;;;7.57;5.75;;;24.90;89.70;;;;;;5092621;28;20058;-62
2023/06/16 08:26:32;;;;;;;8.05;5.75;;;24.70;89.70;;;;;;5091876;28;20056;-64
2023/06/16 08:28:58;;;;;;;5.80;5.22;;;24.70;89.90;;;;;;5091967;28;20055;-64
2023/06/16 08:31:25;;;;;;;8.55;5.90;;;24.40;89.90;;;;;;5091803;28;20423;-61
2023/06/16 08:33:51;;;;;;;5.82;4.90;;;24.20;89.40;;;;;;5092343;28;20050;-62
2023/06/16 08:36:19;;;;;;;7.18;4.88;;;24.30;90.00;;;;;;5091937;28;20357;-64
2023/06/16 08:38:46;;;;;;;5.32;4.82;;;24.40;89.00;;;;;;5092254;28;20097;-64
2023/06/16 08:41:15;;;;;;;6.38;5.10;;;24.30;89.90;;;;;;5092362;28;20059;-63
2023/06/16 08:43:43;;;;;;;6.82;5.72;;;24.10;90.20;;;;;;5092264;28;20093;-64
2023/06/16 08:46:10;;;;;;;6.72;5.25;;;24.00;90.10;;;;;;5092368;28;20052;-64
2023/06/16 08:48:37;;;;;;;6.70;5.57;;;24.30;90.30;;;;;;5092708;28;20051;-63
2023/06/16 08:51:04;;;;;;;6.35;5.22;;;24.40;90.10;;;;;;5091784;28;20052;-63
2023/06/16 08:53:33;;;;;;;7.53;5.45;;;24.40;90.50;;;;;;5091702;28;20066;-59
2023/06/16 08:56:00;;;;;;;7.05;5.95;;;24.50;90.30;;;;;;5091739;28;20357;-63
2023/06/16 08:58:27;;;;;;;6.78;5.43;;;24.40;90.10;;;;;;5092280;28;20549;-62
2023/06/16 09:00:54;;;;;;;6.95;5.28;;;24.40;90.00;;;;;;5092024;28;20098;-62
2023/06/16 09:03:21;;;;;;;6.10;5.50;;;24.30;90.00;;;;;;5092550;28;20456;-63
2023/06/16 09:05:48;;;;;;;6.57;5.97;;;24.20;88.90;;;;;;5092068;28;20097;-62
2023/06/16 09:08:14;;;;;;;6.18;5.18;;;24.20;89.50;;;;;;5092052;28;20431;-65
2023/06/16 09:10:40;;;;;;;24.40;7.82;;;24.40;89.50;;;;;;5092111;28;20044;-65
2023/06/16 09:13:07;;;;;;;8.02;5.20;;;24.40;89.70;;;;;;5092284;28;20048;-64
2023/06/16 09:15:35;;;;;;;6.18;5.57;;;24.50;89.50;;;;;;5092059;28;20043;-63
2023/06/16 09:18:06;;;;;;;8.32;5.55;;;24.60;88.90;;;;;;5092271;28;20113;-64
2023/06/16 09:20:39;;;;;;;7.35;5.35;;;24.60;89.50;;;;;;5092159;28;20268;-63
2023/06/16 09:23:05;;;;;;;7.50;5.18;;;24.60;89.80;;;;;;5091919;28;20063;-62
2023/06/16 09:25:33;;;;;;;6.40;5.72;;;24.80;90.10;;;;;;5092003;28;20109;-64
2023/06/16 09:28:06;;;;;;;6.55;5.82;;;24.70;90.00;;;;;;5088459;28;20223;-62
2023/06/16 09:30:36;;;;;;;9.20;6.40;;;24.60;90.10;;;;;;5070813;28;20260;-64
2023/06/16 09:33:03;;;;;;;6.25;5.65;;;24.70;89.70;;;;;;5070156;28;20055;-64
2023/06/16 09:35:30;;;;;;;6.15;5.55;;;24.60;90.00;;;;;;5078800;28;20044;-64
2023/06/16 09:37:59;;;;;;;7.72;6.30;;;24.90;90.20;;;;;;5092804;28;20070;-63
2023/06/16 09:40:27;;;;;;;8.70;5.93;;;24.80;90.50;;;;;;5094875;28;20101;-63
2023/06/16 09:42:57;;;;;;;7.10;6.40;;;24.80;90.60;;;;;;5095628;28;20475;-63
2023/06/16 09:45:28;;;;;;;7.65;6.22;;;24.70;90.70;;;;;;5094915;28;20444;-64
2023/06/16 09:47:55;;;;;;;7.13;5.97;;;24.90;90.70;;;;;;5096657;28;20109;-63
2023/06/16 09:50:26;;;;;;;7.95;5.88;;;24.70;90.20;;;;;;5082518;28;20390;-63
2023/06/16 09:52:56;;;;;;;6.28;5.18;;;24.60;90.30;;;;;;5094699;28;20055;-63
2023/06/16 09:55:27;;;;;;;6.72;6.00;;;24.80;90.40;;;;;;5081015;28;20047;-64
2023/06/16 09:57:55;;;;;;;6.25;5.65;;;24.80;89.70;;;;;;5074648;28;20135;-63
2023/06/16 10:00:22;;;;;;;6.38;5.78;;;24.70;90.00;;;;;;5073989;28;20048;-63
2023/06/16 10:02:50;;;;;;;6.97;5.90;;;24.70;90.00;;;;;;5075411;28;20049;-64
2023/06/16 10:05:18;;;;;;;6.82;5.22;;;24.70;89.80;;;;;;5079345;28;20048;-63
2023/06/16 10:07:55;;;;;;;5.95;5.35;;;24.80;90.00;;;;;;5093993;28;20048;-63
2023/06/16 10:10:25;;;;;;;6.88;5.57;;;25.00;90.00;;;;;;5094112;28;20040;-63
2023/06/16 10:12:53;;;;;;;6.93;5.68;;;24.70;89.20;;;;;;5094110;28;20040;-64
2023/06/16 10:15:27;;;;;;;8.20;6.80;;;24.80;90.10;;;;;;5094325;28;20044;-63
2023/06/16 10:18:05;;;;;;;8.05;6.00;;;24.80;90.40;;;;;;5093780;28;20056;-63
2023/06/16 10:20:34;;;;;;;8.32;5.47;;;25.00;90.10;;;;;;5094281;28;20391;-63
2023/06/16 10:23:01;;;;;;;7.30;5.53;;;25.30;90.00;;;;;;5094729;28;20057;-64
2023/06/16 10:25:29;;;;;;;9.35;5.40;;;25.30;88.50;;;;;;5095627;28;20047;-62
2023/06/16 10:27:57;;;;;;;6.22;5.28;;;25.50;88.40;;;;;;5095104;28;20062;-62
2023/06/16 10:30:24;;;;;;;8.23;5.68;;;25.60;88.50;;;;;;5094451;28;20060;-60
2023/06/16 10:32:55;;;;;;;9.48;5.13;;;25.40;88.00;;;;;;5094352;28;20052;-59
2023/06/16 10:35:22;;;;;;;5.15;4.47;;;25.50;87.60;;;;;;5093619;28;20123;-61
2023/06/16 10:37:52;;;;;;;6.25;5.65;;;25.70;86.10;;;;;;5094739;28;20325;-61
2023/06/16 10:40:21;;;;;;;6.00;4.68;;;25.40;88.80;;;;;;5094689;28;20113;-61
2023/06/16 10:42:49;;;;;;;4.78;4.28;;;25.70;86.10;;;;;;5094260;28;20055;-61
2023/06/16 10:45:26;;;;;;;7.95;4.50;;;25.90;86.40;;;;;;5094284;28;20460;-59
2023/06/16 10:48:01;;;;;;;6.13;4.28;;;26.00;84.10;;;;;;5094941;28;20055;-60
2023/06/16 10:50:42;;;;;;;48.28;9.60;;;26.10;83.80;;;;;;5094141;28;20040;-59
2023/06/16 10:53:19;;;;;;;102.47;13.25;;;25.90;81.50;;;;;;5094778;28;20177;-63
2023/06/16 10:55:46;;;;;;;11.98;7.75;;;26.10;82.30;;;;;;5094137;28;20048;-59
2023/06/16 10:58:19;;;;;;;5.68;4.55;;;26.00;82.60;;;;;;5094304;28;20048;-62
2023/06/16 11:00:59;;;;;;;6.13;4.40;;;25.90;80.40;;;;;;5094010;28;20059;-62
2023/06/16 11:03:34;;;;;;;5.78;4.55;;;25.80;82.20;;;;;;5094418;28;20421;-62
2023/06/16 11:06:01;;;;;;;4.90;3.72;;;25.80;82.60;;;;;;5094108;28;20044;-63
2023/06/16 11:08:28;;;;;;;4.95;4.15;;;25.70;82.10;;;;;;5094320;28;20056;-61
2023/06/16 11:11:06;;;;;;;7.82;4.60;;;25.80;82.40;;;;;;5093796;28;20059;-60
2023/06/16 11:13:40;;;;;;;6.55;4.35;;;25.70;80.90;;;;;;5094120;28;20048;-60
2023/06/16 11:16:06;;;;;;;7.15;4.25;;;25.90;80.80;;;;;;5094044;28;20105;-57
2023/06/16 11:18:36;;;;;;;5.75;3.97;;;25.80;80.00;;;;;;5094062;28;20044;-59
2023/06/16 11:21:04;;;;;;;5.38;3.60;;;25.80;78.60;;;;;;5093549;28;20048;-58
2023/06/16 11:23:32;;;;;;;5.18;3.67;;;25.80;79.70;;;;;;5094103;28;20052;-61
2023/06/16 11:26:18;;;;;;;5.47;4.03;;;26.00;79.20;;;;;;5093783;28;20052;-59
2023/06/16 11:28:47;;;;;;;6.28;4.70;;;26.10;81.00;;;;;;5093503;28;20426;-61
2023/06/16 11:31:14;;;;;;;5.57;4.22;;;25.90;80.60;;;;;;5093124;28;20052;-60
2023/06/16 11:33:41;;;;;;;8.07;4.13;;;25.80;81.10;;;;;;5094097;28;20044;-61
2023/06/16 11:36:18;;;;;;;6.07;4.10;;;26.00;81.70;;;;;;5093457;28;20407;-61
2023/06/16 11:38:46;;;;;;;5.40;3.88;;;25.90;80.30;;;;;;5093831;28;20059;-61
2023/06/16 11:41:23;;;;;;;5.55;4.05;;;25.90;78.90;;;;;;5093378;28;20059;-59
2023/06/16 11:43:51;;;;;;;10.50;8.52;;;25.90;79.10;;;;;;5093664;28;20052;-61
2023/06/16 11:46:21;;;;;;;9.07;4.80;;;25.90;79.60;;;;;;5093599;28;20056;-61
2023/06/16 11:48:48;;;;;;;5.22;4.18;;;25.80;79.50;;;;;;5093594;28;20044;-57
2023/06/16 11:51:14;;;;;;;5.43;3.88;;;26.00;78.10;;;;;;5092814;28;20055;-59
2023/06/16 11:53:41;;;;;;;5.50;3.85;;;26.00;75.90;;;;;;5093689;28;20044;-59
2023/06/16 11:56:08;;;;;;;6.40;3.60;;;26.10;75.70;;;;;;5093198;28;20036;-59
2023/06/16 11:58:35;;;;;;;4.80;3.55;;;26.20;76.60;;;;;;5093274;28;20052;-53
2023/06/16 12:01:03;;;;;;;5.03;4.10;;;26.00;76.90;;;;;;5092363;28;20052;-57
2023/06/16 12:03:35;;;;;;;6.38;3.78;;;25.90;76.90;;;;;;5093029;28;20048;-55
2023/06/16 12:06:02;;;;;;;4.65;3.60;;;25.90;76.20;;;;;;5092842;28;20060;-56
2023/06/16 12:08:46;;;;;;;4.25;3.28;;;25.90;76.30;;;;;;5092728;28;20408;-58
2023/06/16 12:11:21;;;;;;;6.82;3.90;;;26.20;76.70;;;;;;5092641;28;20051;-58
2023/06/16 12:13:49;;;;;;;11.88;3.78;;;26.50;75.50;;;;;;5093236;28;20051;-58
2023/06/16 12:16:15;;;;;;;3.97;3.08;;;26.60;75.20;;;;;;5092166;28;20448;-58
2023/06/16 12:18:41;;;;;;;5.63;3.70;;;26.60;74.50;;;;;;5092928;28;20101;-57
2023/06/16 12:21:24;;;;;;;38.00;6.47;;;26.30;74.20;;;;;;5092437;28;20093;-60
2023/06/16 12:23:53;;;;;;;6.45;3.63;;;26.60;73.40;;;;;;5093029;28;20059;-62
2023/06/16 12:26:40;;;;;;;5.90;3.70;;;26.30;74.70;;;;;;5092855;28;20471;-59
2023/06/16 12:29:11;;;;;;;5.45;4.10;;;26.40;75.90;;;;;;5093229;28;20077;-60
2023/06/16 12:31:53;;;;;;;5.18;3.60;;;26.20;75.20;;;;;;5092315;28;20051;-61
2023/06/16 12:34:30;;;;;;;6.20;3.97;;;26.30;72.40;;;;;;5092952;28;20044;-62
2023/06/16 12:37:12;;;;;;;5.30;3.60;;;26.30;72.90;;;;;;5081498;28;20361;-63
2023/06/16 12:39:40;;;;;;;6.63;3.45;;;26.30;73.30;;;;;;5090141;28;20169;-61
2023/06/16 12:42:09;;;;;;;8.88;3.78;;;26.30;73.70;;;;;;5073727;28;20048;-63
2023/06/16 12:44:59;;;;;;;4.90;3.40;;;26.30;73.00;;;;;;5072175;28;20048;-62
2023/06/16 12:47:26;;;;;;;5.80;3.90;;;26.50;73.80;;;;;;5079206;28;20043;-60